Forside
METAR-TAF:

METAR-TAF

Lufthavne :

Vladivostok Internationale Lufthavn

Vladivostok, Rusland

Breddekreds: 43-07N, længdekreds: 131-56E, højde: 184 m

Aktuelle vejr

Denne rapport blev lavet for 46 minutter siden, kl. 08:00 UTC
Vind 10 kt fra nord, varierende mellem nordvest og nordnordøst
Temperatur 2°C
Fugtighed 27%
Tryk 1025 hPa
Sigt 10 km eller mere

METAR: UHWW 270800Z 36005MPS 320V030 9999 NSC 02/M15 Q1025 R25L/0///70 NOSIG RMK QFE768

Tid: 18:46 (08:46 UTC)

Vejrudsigter

Denne rapport blev lavet for 46 minutter siden, kl. 08:00 UTC
Foreløbig gælder fra 27 på 09 UTC til 28 på 09 UTC
Vind 6 kt fra nord
Sigt 10 km eller mere
ændring
fra 28 på 02 UTC til 28 på 05 UTC
Vind 6 kt fra syd
Brudte skyer i en højde af 2500 ft
Fra 28 på 0800 UTC
Vind 6 kt fra sydvest
Sigt: 5000 m
Brudte skyer i en højde af 2000 ft, Cumulonimbus.
let snebyger

TAF: UHWW 270800Z 2709/2809 36003MPS 9999 NSC BECMG 2802/2805 18003MPS BKN025 FM280800 22003MPS 5000 -SHSN BKN020CB

Vejrobservationer og prognoser fra mere end 4000 lufthavne (METAR og TAF).

De gule og røde prikker repræsenterer de meteorologiske stationer.

Flyt musen over at se navnet på stationen.

Så klik over at se vejr observationer og prognoser.

At skifte det kort: Klik på de grønne knapper med et sort kors for at zoome ind; på den grønne knap med en bindestreg for at zoome ud; eller på de grønne pile for tilstødende kort.


METAR-TAF: